sensor_id;sensor_type;location;lat;lon;timestamp;pressure;altitude;pressure_sealevel;temperature;humidity
59190;BME280;50749;51.636;4.948;2023-05-07T00:00:38;101668.66;;;19.55;61.16
59190;BME280;50749;51.636;4.948;2023-05-07T00:03:19;101669.78;;;19.54;61.17
59190;BME280;50749;51.636;4.948;2023-05-07T00:05:45;101671.78;;;19.54;61.31
59190;BME280;50749;51.636;4.948;2023-05-07T00:08:11;101670.16;;;19.53;61.70
59190;BME280;50749;51.636;4.948;2023-05-07T00:10:38;101669.34;;;19.52;61.51
59190;BME280;50749;51.636;4.948;2023-05-07T00:13:03;101667.72;;;19.51;61.52
59190;BME280;50749;51.636;4.948;2023-05-07T00:15:29;101670.50;;;19.51;61.43
59190;BME280;50749;51.636;4.948;2023-05-07T00:17:55;101678.81;;;19.51;61.19
59190;BME280;50749;51.636;4.948;2023-05-07T00:20:21;101668.88;;;19.50;61.27
59190;BME280;50749;51.636;4.948;2023-05-07T00:22:47;101674.41;;;19.50;61.22
59190;BME280;50749;51.636;4.948;2023-05-07T00:25:13;101666.91;;;19.51;61.24
59190;BME280;50749;51.636;4.948;2023-05-07T00:27:39;101669.25;;;19.48;61.35
59190;BME280;50749;51.636;4.948;2023-05-07T00:30:05;101673.59;;;19.49;61.54
59190;BME280;50749;51.636;4.948;2023-05-07T00:32:31;101671.19;;;19.48;61.31
59190;BME280;50749;51.636;4.948;2023-05-07T00:34:57;101662.06;;;19.47;61.50
59190;BME280;50749;51.636;4.948;2023-05-07T00:37:23;101659.63;;;19.46;61.02
59190;BME280;50749;51.636;4.948;2023-05-07T00:39:49;101660.78;;;19.45;61.33
59190;BME280;50749;51.636;4.948;2023-05-07T00:42:15;101657.22;;;19.44;61.55
59190;BME280;50749;51.636;4.948;2023-05-07T00:44:41;101662.75;;;19.44;61.58
59190;BME280;50749;51.636;4.948;2023-05-07T00:47:07;101655.63;;;19.43;61.18
59190;BME280;50749;51.636;4.948;2023-05-07T00:49:42;101660.34;;;19.43;61.30
59190;BME280;50749;51.636;4.948;2023-05-07T00:52:11;101657.56;;;19.43;61.63
59190;BME280;50749;51.636;4.948;2023-05-07T00:54:38;101649.25;;;19.43;61.26
59190;BME280;50749;51.636;4.948;2023-05-07T00:57:05;101653.19;;;19.42;61.28
59190;BME280;50749;51.636;4.948;2023-05-07T00:59:32;101650.41;;;19.42;61.21
59190;BME280;50749;51.636;4.948;2023-05-07T01:01:58;101658.72;;;19.42;61.47
59190;BME280;50749;51.636;4.948;2023-05-07T01:04:26;101665.41;;;19.41;61.00
59190;BME280;50749;51.636;4.948;2023-05-07T01:06:53;101659.88;;;19.41;61.23
59190;BME280;50749;51.636;4.948;2023-05-07T01:09:22;101655.47;;;19.40;61.07
59190;BME280;50749;51.636;4.948;2023-05-07T01:11:50;101658.25;;;19.40;61.11
59190;BME280;50749;51.636;4.948;2023-05-07T01:14:18;101649.13;;;19.39;61.16
59190;BME280;50749;51.636;4.948;2023-05-07T01:16:44;101648.34;;;19.39;61.27
59190;BME280;50749;51.636;4.948;2023-05-07T01:19:11;101648.34;;;19.39;60.87
59190;BME280;50749;51.636;4.948;2023-05-07T01:21:43;101644.72;;;19.38;61.00
59190;BME280;50749;51.636;4.948;2023-05-07T01:24:11;101636.78;;;19.37;61.07
59190;BME280;50749;51.636;4.948;2023-05-07T01:26:38;101636.78;;;19.37;61.07
59190;BME280;50749;51.636;4.948;2023-05-07T01:29:04;101633.19;;;19.36;60.88
59190;BME280;50749;51.636;4.948;2023-05-07T01:31:29;101637.13;;;19.35;61.25
59190;BME280;50749;51.636;4.948;2023-05-07T01:33:56;101625.22;;;19.35;60.98
59190;BME280;50749;51.636;4.948;2023-05-07T01:36:23;101626.03;;;19.35;61.25
59190;BME280;50749;51.636;4.948;2023-05-07T01:38:52;101619.66;;;19.35;60.91
59190;BME280;50749;51.636;4.948;2023-05-07T01:41:19;101618.06;;;19.34;61.12
59190;BME280;50749;51.636;4.948;2023-05-07T01:43:46;101610.91;;;19.33;60.85
59190;BME280;50749;51.636;4.948;2023-05-07T01:46:12;101606.88;;;19.30;60.98
59190;BME280;50749;51.636;4.948;2023-05-07T01:48:38;101610.00;;;19.28;60.94
59190;BME280;50749;51.636;4.948;2023-05-07T01:51:05;101605.25;;;19.29;60.84
59190;BME280;50749;51.636;4.948;2023-05-07T01:53:38;101614.72;;;19.28;61.30
59190;BME280;50749;51.636;4.948;2023-05-07T01:56:05;101609.91;;;19.25;61.17
59190;BME280;50749;51.636;4.948;2023-05-07T01:58:31;101622.56;;;19.26;61.04
59190;BME280;50749;51.636;4.948;2023-05-07T02:00:56;101615.06;;;19.26;61.02
59190;BME280;50749;51.636;4.948;2023-05-07T02:03:22;101616.22;;;19.25;61.17
59190;BME280;50749;51.636;4.948;2023-05-07T02:05:48;101615.88;;;19.27;61.10
59190;BME280;50749;51.636;4.948;2023-05-07T02:08:14;101615.06;;;19.26;61.12
59190;BME280;50749;51.636;4.948;2023-05-07T02:10:40;101617.50;;;19.28;61.34
59190;BME280;50749;51.636;4.948;2023-05-07T02:13:06;101609.91;;;19.25;61.32
59190;BME280;50749;51.636;4.948;2023-05-07T02:15:32;101609.06;;;19.24;61.12
59190;BME280;50749;51.636;4.948;2023-05-07T02:18:08;101601.44;;;19.21;61.24
59190;BME280;50749;51.636;4.948;2023-05-07T02:20:35;101618.56;;;19.23;61.04
59190;BME280;50749;51.636;4.948;2023-05-07T02:23:01;101611.38;;;19.22;61.25
59190;BME280;50749;51.636;4.948;2023-05-07T02:25:27;101618.56;;;19.23;61.20
59190;BME280;50749;51.636;4.948;2023-05-07T02:27:52;101625.69;;;19.24;61.30
59190;BME280;50749;51.636;4.948;2023-05-07T02:30:18;101620.97;;;19.25;61.11
59190;BME280;50749;51.636;4.948;2023-05-07T02:32:46;101619.00;;;19.25;60.82
59190;BME280;50749;51.636;4.948;2023-05-07T02:35:12;101620.97;;;19.25;61.21
59190;BME280;50749;51.636;4.948;2023-05-07T02:37:38;101615.44;;;19.25;60.77
59190;BME280;50749;51.636;4.948;2023-05-07T02:40:04;101622.91;;;19.24;60.67
59190;BME280;50749;51.636;4.948;2023-05-07T02:42:30;101621.31;;;19.23;60.82
59190;BME280;50749;51.636;4.948;2023-05-07T02:44:56;101613.00;;;19.23;60.99
59190;BME280;50749;51.636;4.948;2023-05-07T02:47:22;101622.47;;;19.22;60.98
59190;BME280;50749;51.636;4.948;2023-05-07T02:49:48;101616.94;;;19.22;60.61
59190;BME280;50749;51.636;4.948;2023-05-07T02:52:14;101623.28;;;19.23;60.78
59190;BME280;50749;51.636;4.948;2023-05-07T02:54:39;101622.47;;;19.22;61.05
59190;BME280;50749;51.636;4.948;2023-05-07T02:57:05;101627.22;;;19.22;61.07
59190;BME280;50749;51.636;4.948;2023-05-07T02:59:31;101630.34;;;19.20;61.16
59190;BME280;50749;51.636;4.948;2023-05-07T03:01:57;101625.59;;;19.21;61.24
59190;BME280;50749;51.636;4.948;2023-05-07T03:04:23;101627.56;;;19.20;60.99
59190;BME280;50749;51.636;4.948;2023-05-07T03:06:49;101626.72;;;19.20;61.06
59190;BME280;50749;51.636;4.948;2023-05-07T03:09:14;101622.00;;;19.20;60.99
59190;BME280;50749;51.636;4.948;2023-05-07T03:11:40;101624.78;;;19.20;60.86
59190;BME280;50749;51.636;4.948;2023-05-07T03:14:06;101615.66;;;19.20;60.93
59190;BME280;50749;51.636;4.948;2023-05-07T03:16:32;101619.25;;;19.20;60.60
59190;BME280;50749;51.636;4.948;2023-05-07T03:18:58;101628.69;;;19.19;60.70
59190;BME280;50749;51.636;4.948;2023-05-07T03:21:24;101617.63;;;19.19;61.02
59190;BME280;50749;51.636;4.948;2023-05-07T03:23:51;101614.84;;;19.19;60.59
59190;BME280;50749;51.636;4.948;2023-05-07T03:26:17;101614.38;;;19.17;60.67
59190;BME280;50749;51.636;4.948;2023-05-07T03:28:43;101622.38;;;19.19;61.01
59190;BME280;50749;51.636;4.948;2023-05-07T03:31:09;101621.56;;;19.18;61.12
59190;BME280;50749;51.636;4.948;2023-05-07T03:33:35;101617.97;;;19.18;61.03
59190;BME280;50749;51.636;4.948;2023-05-07T03:36:01;101615.19;;;19.18;60.97
59190;BME280;50749;51.636;4.948;2023-05-07T03:38:27;101617.97;;;19.18;60.95
59190;BME280;50749;51.636;4.948;2023-05-07T03:40:53;101619.94;;;19.17;60.90
59190;BME280;50749;51.636;4.948;2023-05-07T03:43:18;101624.69;;;19.17;61.14
59190;BME280;50749;51.636;4.948;2023-05-07T03:45:44;101623.06;;;19.16;61.05
59190;BME280;50749;51.636;4.948;2023-05-07T03:48:10;101619.13;;;19.17;60.56
59190;BME280;50749;51.636;4.948;2023-05-07T03:50:37;101621.91;;;19.17;60.52
59190;BME280;50749;51.636;4.948;2023-05-07T03:53:03;101624.69;;;19.17;60.77
59190;BME280;50749;51.636;4.948;2023-05-07T03:55:29;101625.81;;;19.16;61.00
59190;BME280;50749;51.636;4.948;2023-05-07T03:57:55;101619.13;;;19.17;60.89
59190;BME280;50749;51.636;4.948;2023-05-07T04:00:22;101617.50;;;19.16;60.52
59190;BME280;50749;51.636;4.948;2023-05-07T04:02:48;101627.78;;;19.15;60.62
59190;BME280;50749;51.636;4.948;2023-05-07T04:05:14;101628.59;;;19.16;60.93
59190;BME280;50749;51.636;4.948;2023-05-07T04:07:40;101622.25;;;19.15;60.70
59190;BME280;50749;51.636;4.948;2023-05-07T04:10:06;101625.03;;;19.15;61.06
59190;BME280;50749;51.636;4.948;2023-05-07T04:12:32;101625.03;;;19.15;60.90
59190;BME280;50749;51.636;4.948;2023-05-07T04:14:58;101623.41;;;19.14;60.91
59190;BME280;50749;51.636;4.948;2023-05-07T04:17:23;101626.97;;;19.15;60.85
59190;BME280;50749;51.636;4.948;2023-05-07T04:19:49;101630.09;;;19.13;60.56
59190;BME280;50749;51.636;4.948;2023-05-07T04:22:15;101630.91;;;19.14;61.06
59190;BME280;50749;51.636;4.948;2023-05-07T04:24:41;101641.16;;;19.13;60.73
59190;BME280;50749;51.636;4.948;2023-05-07T04:27:07;101636.47;;;19.14;60.59
59190;BME280;50749;51.636;4.948;2023-05-07T04:29:33;101636.47;;;19.14;60.94
59190;BME280;50749;51.636;4.948;2023-05-07T04:31:58;101639.22;;;19.14;60.94
59190;BME280;50749;51.636;4.948;2023-05-07T04:34:24;101643.94;;;19.13;60.87
59190;BME280;50749;51.636;4.948;2023-05-07T04:36:50;101646.72;;;19.13;60.83
59190;BME280;50749;51.636;4.948;2023-05-07T04:39:16;101640.38;;;19.12;61.03
59190;BME280;50749;51.636;4.948;2023-05-07T04:41:41;101639.56;;;19.12;60.66
59190;BME280;50749;51.636;4.948;2023-05-07T04:44:07;101641.16;;;19.13;60.70
59190;BME280;50749;51.636;4.948;2023-05-07T04:46:34;101638.78;;;19.11;60.85
59190;BME280;50749;51.636;4.948;2023-05-07T04:49:00;101642.34;;;19.12;60.70
59190;BME280;50749;51.636;4.948;2023-05-07T04:51:26;101642.34;;;19.12;60.53
59190;BME280;50749;51.636;4.948;2023-05-07T04:53:52;101638.78;;;19.11;60.57
59190;BME280;50749;51.636;4.948;2023-05-07T04:56:17;101634.03;;;19.12;60.69
59190;BME280;50749;51.636;4.948;2023-05-07T04:58:43;101639.47;;;19.08;60.84
59190;BME280;50749;51.636;4.948;2023-05-07T05:01:09;101641.41;;;19.08;60.61
59190;BME280;50749;51.636;4.948;2023-05-07T05:03:35;101635.41;;;19.06;60.99
59190;BME280;50749;51.636;4.948;2023-05-07T05:06:01;101636.59;;;19.05;61.13
59190;BME280;50749;51.636;4.948;2023-05-07T05:08:27;101630.56;;;19.03;60.93
59190;BME280;50749;51.636;4.948;2023-05-07T05:10:53;101632.19;;;19.04;60.76
59190;BME280;50749;51.636;4.948;2023-05-07T05:13:19;101640.50;;;19.04;60.79
59190;BME280;50749;51.636;4.948;2023-05-07T05:15:44;101641.63;;;19.03;61.08
59190;BME280;50749;51.636;4.948;2023-05-07T05:18:11;101647.19;;;19.03;61.15
59190;BME280;50749;51.636;4.948;2023-05-07T05:20:37;101648.81;;;19.04;60.87
59190;BME280;50749;51.636;4.948;2023-05-07T05:23:02;101650.44;;;19.05;61.35
59190;BME280;50749;51.636;4.948;2023-05-07T05:25:28;101654.34;;;19.04;61.01
59190;BME280;50749;51.636;4.948;2023-05-07T05:27:54;101659.88;;;19.04;61.29
59190;BME280;50749;51.636;4.948;2023-05-07T05:30:20;101657.56;;;19.06;61.16
59190;BME280;50749;51.636;4.948;2023-05-07T05:32:46;101667.88;;;19.05;61.32
59190;BME280;50749;51.636;4.948;2023-05-07T05:35:12;101666.72;;;19.06;61.32
59190;BME280;50749;51.636;4.948;2023-05-07T05:37:38;101668.66;;;19.06;61.28
59190;BME280;50749;51.636;4.948;2023-05-07T05:40:04;101672.25;;;19.06;60.94
59190;BME280;50749;51.636;4.948;2023-05-07T05:42:30;101675.84;;;19.07;61.21
59190;BME280;50749;51.636;4.948;2023-05-07T05:44:56;101678.59;;;19.07;61.00
59190;BME280;50749;51.636;4.948;2023-05-07T05:47:22;101675.84;;;19.07;60.99
59190;BME280;50749;51.636;4.948;2023-05-07T05:49:48;101681.38;;;19.07;60.92
59190;BME280;50749;51.636;4.948;2023-05-07T05:52:14;101677.44;;;19.08;61.00
59190;BME280;50749;51.636;4.948;2023-05-07T05:54:40;101671.88;;;19.08;60.86
59190;BME280;50749;51.636;4.948;2023-05-07T05:57:06;101672.72;;;19.08;60.96
59190;BME280;50749;51.636;4.948;2023-05-07T05:59:32;101672.72;;;19.08;60.96
59190;BME280;50749;51.636;4.948;2023-05-07T06:01:58;101667.97;;;19.09;61.21
59190;BME280;50749;51.636;4.948;2023-05-07T06:04:23;101673.53;;;19.09;61.11
59190;BME280;50749;51.636;4.948;2023-05-07T06:06:49;101669.13;;;19.08;61.17
59190;BME280;50749;51.636;4.948;2023-05-07T06:09:15;101678.25;;;19.08;60.95
59190;BME280;50749;51.636;4.948;2023-05-07T06:11:41;101675.84;;;19.07;61.43
59190;BME280;50749;51.636;4.948;2023-05-07T06:14:07;101675.84;;;19.07;61.63
59190;BME280;50749;51.636;4.948;2023-05-07T06:16:33;101681.38;;;19.07;61.32
59190;BME280;50749;51.636;4.948;2023-05-07T06:18:58;101681.38;;;19.07;61.63
59190;BME280;50749;51.636;4.948;2023-05-07T06:21:24;101676.63;;;19.07;61.64
59190;BME280;50749;51.636;4.948;2023-05-07T06:23:50;101684.59;;;19.09;61.39
59190;BME280;50749;51.636;4.948;2023-05-07T06:26:17;101680.69;;;19.10;61.56
59190;BME280;50749;51.636;4.948;2023-05-07T06:28:45;101680.69;;;19.10;61.28
59190;BME280;50749;51.636;4.948;2023-05-07T06:31:13;101697.31;;;19.10;61.43
59190;BME280;50749;51.636;4.948;2023-05-07T06:33:39;101687.84;;;19.11;61.41
59190;BME280;50749;51.636;4.948;2023-05-07T06:36:06;101685.06;;;19.11;61.46
59190;BME280;50749;51.636;4.948;2023-05-07T06:38:31;101694.53;;;19.10;61.37
59190;BME280;50749;51.636;4.948;2023-05-07T06:40:57;101696.16;;;19.11;61.68
59190;BME280;50749;51.636;4.948;2023-05-07T06:43:23;101696.59;;;19.13;61.66
59190;BME280;50749;51.636;4.948;2023-05-07T06:45:49;101698.22;;;19.14;62.13
59190;BME280;50749;51.636;4.948;2023-05-07T06:48:15;101695.91;;;19.16;61.69
59190;BME280;50749;51.636;4.948;2023-05-07T06:50:41;101691.66;;;19.19;61.27
59190;BME280;50749;51.636;4.948;2023-05-07T06:53:07;101701.56;;;19.20;61.51
59190;BME280;50749;51.636;4.948;2023-05-07T06:55:33;101694.88;;;19.21;61.79
59190;BME280;50749;51.636;4.948;2023-05-07T06:57:59;101702.06;;;19.22;61.21
59190;BME280;50749;51.636;4.948;2023-05-07T07:00:27;101703.31;;;19.24;61.49
59190;BME280;50749;51.636;4.948;2023-05-07T07:02:54;101701.81;;;19.27;61.40
59190;BME280;50749;51.636;4.948;2023-05-07T07:05:20;101706.53;;;19.26;61.54
59190;BME280;50749;51.636;4.948;2023-05-07T07:07:46;101700.75;;;19.31;61.72
59190;BME280;50749;51.636;4.948;2023-05-07T07:10:22;101703.53;;;19.31;61.77
59190;BME280;50749;51.636;4.948;2023-05-07T07:12:48;101704.38;;;19.32;61.50
59190;BME280;50749;51.636;4.948;2023-05-07T07:15:15;101706.78;;;19.34;61.51
59190;BME280;50749;51.636;4.948;2023-05-07T07:17:41;101705.28;;;19.36;61.60
59190;BME280;50749;51.636;4.948;2023-05-07T07:20:08;101706.09;;;19.37;61.27
59190;BME280;50749;51.636;4.948;2023-05-07T07:22:33;101711.28;;;19.38;61.52
59190;BME280;50749;51.636;4.948;2023-05-07T07:24:59;101711.88;;;19.44;61.69
59190;BME280;50749;51.636;4.948;2023-05-07T07:27:25;101719.84;;;19.45;61.52
59190;BME280;50749;51.636;4.948;2023-05-07T07:29:52;101715.91;;;19.46;61.30
59190;BME280;50749;51.636;4.948;2023-05-07T07:32:18;101719.59;;;19.51;61.05
59190;BME280;50749;51.636;4.948;2023-05-07T07:34:44;101712.09;;;19.51;61.17
59190;BME280;50749;51.636;4.948;2023-05-07T07:37:10;101720.41;;;19.51;61.42
59190;BME280;50749;51.636;4.948;2023-05-07T07:39:36;101721.69;;;19.54;60.87
59190;BME280;50749;51.636;4.948;2023-05-07T07:42:04;101723.28;;;19.55;60.87
59190;BME280;50749;51.636;4.948;2023-05-07T07:44:31;101724.56;;;19.57;61.42
59190;BME280;50749;51.636;4.948;2023-05-07T07:46:56;101730.56;;;19.59;61.42
59190;BME280;50749;51.636;4.948;2023-05-07T07:49:22;101732.19;;;19.60;61.67
59190;BME280;50749;51.636;4.948;2023-05-07T07:51:50;101725.03;;;19.59;60.83
59190;BME280;50749;51.636;4.948;2023-05-07T07:54:16;101722.25;;;19.59;60.92
59190;BME280;50749;51.636;4.948;2023-05-07T07:56:42;101721.09;;;19.60;60.73
59190;BME280;50749;51.636;4.948;2023-05-07T07:59:08;101721.09;;;19.60;61.04
59190;BME280;50749;51.636;4.948;2023-05-07T08:01:34;101722.72;;;19.61;60.96
59190;BME280;50749;51.636;4.948;2023-05-07T08:04:00;101722.34;;;19.63;61.00
59190;BME280;50749;51.636;4.948;2023-05-07T08:06:28;101729.19;;;19.65;61.14
59190;BME280;50749;51.636;4.948;2023-05-07T08:08:55;101733.91;;;19.65;60.51
59190;BME280;50749;51.636;4.948;2023-05-07T08:11:21;101731.97;;;19.65;61.25
59190;BME280;50749;51.636;4.948;2023-05-07T08:13:48;101728.00;;;19.66;60.84
59190;BME280;50749;51.636;4.948;2023-05-07T08:16:14;101732.41;;;19.67;60.89
59190;BME280;50749;51.636;4.948;2023-05-07T08:18:40;101735.19;;;19.67;60.84
59190;BME280;50749;51.636;4.948;2023-05-07T08:21:06;101724.56;;;19.70;60.85
59190;BME280;50749;51.636;4.948;2023-05-07T08:23:33;101737.38;;;19.74;60.90
59190;BME280;50749;51.636;4.948;2023-05-07T08:26:00;101734.94;;;19.73;61.22
59190;BME280;50749;51.636;4.948;2023-05-07T08:28:26;101738.22;;;19.75;61.25
59190;BME280;50749;51.636;4.948;2023-05-07T08:30:51;101738.66;;;19.77;60.77
59190;BME280;50749;51.636;4.948;2023-05-07T08:33:18;101735.53;;;19.78;60.87
59190;BME280;50749;51.636;4.948;2023-05-07T08:35:43;101736.81;;;19.81;61.13
59190;BME280;50749;51.636;4.948;2023-05-07T08:38:09;101744.44;;;19.84;60.90
59190;BME280;50749;51.636;4.948;2023-05-07T08:40:37;101737.84;;;19.89;61.03
59190;BME280;50749;51.636;4.948;2023-05-07T08:43:07;101743.50;;;19.92;61.18
59190;BME280;50749;51.636;4.948;2023-05-07T08:45:34;101751.13;;;19.95;61.01
59190;BME280;50749;51.636;4.948;2023-05-07T08:48:03;101743.28;;;19.97;60.43
59190;BME280;50749;51.636;4.948;2023-05-07T08:50:30;101742.09;;;19.98;60.51
59190;BME280;50749;51.636;4.948;2023-05-07T08:52:56;101739.41;;;20.02;60.99
59190;BME280;50749;51.636;4.948;2023-05-07T08:55:23;101743.03;;;20.02;60.80
59190;BME280;50749;51.636;4.948;2023-05-07T08:57:50;101742.34;;;20.06;60.77
59190;BME280;50749;51.636;4.948;2023-05-07T09:00:16;101736.78;;;20.06;60.71
59190;BME280;50749;51.636;4.948;2023-05-07T09:02:42;101740.00;;;20.08;60.88
59190;BME280;50749;51.636;4.948;2023-05-07T09:05:08;101741.59;;;20.09;60.82
59190;BME280;50749;51.636;4.948;2023-05-07T09:07:34;101738.47;;;20.10;60.67
59190;BME280;50749;51.636;4.948;2023-05-07T09:10:04;101735.34;;;20.12;60.76
59190;BME280;50749;51.636;4.948;2023-05-07T09:12:31;101745.31;;;20.13;60.37
59190;BME280;50749;51.636;4.948;2023-05-07T09:14:57;101745.75;;;20.15;60.52
59190;BME280;50749;51.636;4.948;2023-05-07T09:17:23;101750.16;;;20.16;60.70
59190;BME280;50749;51.636;4.948;2023-05-07T09:19:48;101749.44;;;20.19;60.55
59190;BME280;50749;51.636;4.948;2023-05-07T09:22:15;101752.69;;;20.21;60.76
59190;BME280;50749;51.636;4.948;2023-05-07T09:24:40;101745.97;;;20.22;60.85
59190;BME280;50749;51.636;4.948;2023-05-07T09:27:07;101743.66;;;20.24;60.35
59190;BME280;50749;51.636;4.948;2023-05-07T09:29:34;101738.56;;;20.26;60.27
59190;BME280;50749;51.636;4.948;2023-05-07T09:32:06;101738.22;;;20.28;60.36
59190;BME280;50749;51.636;4.948;2023-05-07T09:34:33;101741.44;;;20.30;60.40
59190;BME280;50749;51.636;4.948;2023-05-07T09:37:03;101735.53;;;20.31;60.71
59190;BME280;50749;51.636;4.948;2023-05-07T09:42:06;101749.50;;;20.35;60.21
59190;BME280;50749;51.636;4.948;2023-05-07T09:44:33;101744.75;;;20.35;60.31
59190;BME280;50749;51.636;4.948;2023-05-07T09:47:00;101745.94;;;20.34;60.21
59190;BME280;50749;51.636;4.948;2023-05-07T09:49:29;101744.41;;;20.37;60.44
59190;BME280;50749;51.636;4.948;2023-05-07T09:52:00;101746.38;;;20.36;60.40
59190;BME280;50749;51.636;4.948;2023-05-07T09:54:26;101751.94;;;20.36;60.63
59190;BME280;50749;51.636;4.948;2023-05-07T09:56:57;101744.75;;;20.35;60.62
59190;BME280;50749;51.636;4.948;2023-05-07T09:59:24;101749.97;;;20.37;60.84
59190;BME280;50749;51.636;4.948;2023-05-07T10:01:52;101757.50;;;20.36;60.14
59190;BME280;50749;51.636;4.948;2023-05-07T10:04:21;101749.97;;;20.37;60.69
59190;BME280;50749;51.636;4.948;2023-05-07T10:06:48;101751.94;;;20.36;60.46
59190;BME280;50749;51.636;4.948;2023-05-07T10:09:14;101752.75;;;20.37;60.52
59190;BME280;50749;51.636;4.948;2023-05-07T10:11:41;101753.53;;;20.37;60.26
59190;BME280;50749;51.636;4.948;2023-05-07T10:14:07;101748.81;;;20.38;60.60
59190;BME280;50749;51.636;4.948;2023-05-07T10:16:35;101751.25;;;20.39;61.09
59190;BME280;50749;51.636;4.948;2023-05-07T10:19:05;101759.22;;;20.41;60.68
59190;BME280;50749;51.636;4.948;2023-05-07T10:21:40;101750.06;;;20.40;60.30
59190;BME280;50749;51.636;4.948;2023-05-07T10:24:16;101749.81;;;20.46;60.47
59190;BME280;50749;51.636;4.948;2023-05-07T10:26:48;101748.56;;;20.43;60.45
59190;BME280;50749;51.636;4.948;2023-05-07T10:29:29;101755.25;;;20.42;60.34
59190;BME280;50749;51.636;4.948;2023-05-07T10:34:57;101759.22;;;20.41;60.30
59190;BME280;50749;51.636;4.948;2023-05-07T10:37:26;101759.22;;;20.41;60.68
59190;BME280;50749;51.636;4.948;2023-05-07T10:39:52;101763.94;;;20.40;60.76
59190;BME280;50749;51.636;4.948;2023-05-07T10:42:18;101769.16;;;20.42;60.58
59190;BME280;50749;51.636;4.948;2023-05-07T10:44:44;101771.13;;;20.41;60.27
59190;BME280;50749;51.636;4.948;2023-05-07T10:47:12;101764.44;;;20.42;60.36
59190;BME280;50749;51.636;4.948;2023-05-07T10:52:30;101774.81;;;20.46;60.37
59190;BME280;50749;51.636;4.948;2023-05-07T10:57:40;101772.50;;;20.48;60.29
59190;BME280;50749;51.636;4.948;2023-05-07T11:05:29;101774.09;;;20.49;60.44
59190;BME280;50749;51.636;4.948;2023-05-07T11:08:00;101780.44;;;20.49;60.05
59190;BME280;50749;51.636;4.948;2023-05-07T11:10:54;101780.09;;;20.51;60.36
59190;BME280;50749;51.636;4.948;2023-05-07T11:13:46;101778.94;;;20.52;59.95
59190;BME280;50749;51.636;4.948;2023-05-07T11:16:23;101780.84;;;20.48;59.47
59190;BME280;50749;51.636;4.948;2023-05-07T11:18:51;101780.00;;;20.47;59.16
59190;BME280;50749;51.636;4.948;2023-05-07T11:21:36;101784.31;;;20.45;59.60
59190;BME280;50749;51.636;4.948;2023-05-07T11:24:03;101782.34;;;20.45;59.63
59190;BME280;50749;51.636;4.948;2023-05-07T11:26:40;101786.75;;;20.46;59.22
59190;BME280;50749;51.636;4.948;2023-05-07T11:29:18;101786.25;;;20.44;59.17
59190;BME280;50749;51.636;4.948;2023-05-07T11:31:54;101787.88;;;20.45;59.53
59190;BME280;50749;51.636;4.948;2023-05-07T11:34:22;101780.59;;;20.40;59.94
59190;BME280;50749;51.636;4.948;2023-05-07T11:36:48;101791.97;;;20.35;59.73
59190;BME280;50749;51.636;4.948;2023-05-07T11:39:31;101791.50;;;20.33;59.55
59190;BME280;50749;51.636;4.948;2023-05-07T11:41:59;101795.91;;;20.34;59.77
59190;BME280;50749;51.636;4.948;2023-05-07T11:44:43;101793.84;;;20.31;59.80
59190;BME280;50749;51.636;4.948;2023-05-07T11:47:10;101791.06;;;20.31;59.77
59190;BME280;50749;51.636;4.948;2023-05-07T11:49:36;101796.63;;;20.31;60.06
59190;BME280;50749;51.636;4.948;2023-05-07T11:52:02;101794.53;;;20.28;59.95
59190;BME280;50749;51.636;4.948;2023-05-07T11:54:35;101792.91;;;20.27;60.33
59190;BME280;50749;51.636;4.948;2023-05-07T11:57:01;101789.22;;;20.23;60.03
59190;BME280;50749;51.636;4.948;2023-05-07T11:59:27;101795.69;;;20.27;59.76
59190;BME280;50749;51.636;4.948;2023-05-07T12:01:56;101797.78;;;20.30;59.86
59190;BME280;50749;51.636;4.948;2023-05-07T12:04:23;101802.16;;;20.31;59.77
59190;BME280;50749;51.636;4.948;2023-05-07T12:06:48;101796.16;;;20.29;59.75
59190;BME280;50749;51.636;4.948;2023-05-07T12:09:17;101794.53;;;20.28;60.15
59190;BME280;50749;51.636;4.948;2023-05-07T12:11:45;101791.41;;;20.30;59.95
59190;BME280;50749;51.636;4.948;2023-05-07T12:14:12;101791.75;;;20.28;59.44
59190;BME280;50749;51.636;4.948;2023-05-07T12:16:39;101803.56;;;20.25;59.51
59190;BME280;50749;51.636;4.948;2023-05-07T12:19:06;101798.47;;;20.27;59.59
59190;BME280;50749;51.636;4.948;2023-05-07T12:21:34;101800.78;;;20.25;59.58
59190;BME280;50749;51.636;4.948;2023-05-07T12:24:01;101799.53;;;20.22;59.93
59190;BME280;50749;51.636;4.948;2023-05-07T12:26:27;101809.47;;;20.23;60.43
59190;BME280;50749;51.636;4.948;2023-05-07T12:28:53;101798.81;;;20.26;60.51
59190;BME280;50749;51.636;4.948;2023-05-07T12:31:18;101801.72;;;20.29;60.22
59190;BME280;50749;51.636;4.948;2023-05-07T12:33:45;101806.56;;;20.32;60.41
59190;BME280;50749;51.636;4.948;2023-05-07T12:36:12;101808.53;;;20.32;60.41
59190;BME280;50749;51.636;4.948;2023-05-07T12:38:38;101809.31;;;20.32;60.58
59190;BME280;50749;51.636;4.948;2023-05-07T12:41:10;101811.19;;;20.28;60.56
59190;BME280;50749;51.636;4.948;2023-05-07T12:43:38;101812.84;;;20.29;60.24
59190;BME280;50749;51.636;4.948;2023-05-07T12:46:06;101813.19;;;20.28;60.09
59190;BME280;50749;51.636;4.948;2023-05-07T12:48:32;101818.38;;;20.29;60.16
59190;BME280;50749;51.636;4.948;2023-05-07T12:51:01;101818.84;;;20.31;60.57
59190;BME280;50749;51.636;4.948;2023-05-07T12:53:29;101815.34;;;20.34;60.32
59190;BME280;50749;51.636;4.948;2023-05-07T12:55:57;101814.63;;;20.37;60.15
59190;BME280;50749;51.636;4.948;2023-05-07T12:58:27;101820.66;;;20.39;61.10
59190;BME280;50749;51.636;4.948;2023-05-07T13:00:54;101826.31;;;20.43;60.22
59190;BME280;50749;51.636;4.948;2023-05-07T13:03:22;101822.03;;;20.46;60.32
59190;BME280;50749;51.636;4.948;2023-05-07T13:05:48;101823.66;;;20.47;60.01